OAL883 DGAA-FGSL
Flight info
| Callsign | OAL883 |
|---|---|
| Flight time | 1h 15m |
| Altitude | 31000 |
| Route | METUS UP685 ARDEX DCT NAPAP DCT DERES |
| Aircraft | B738/M-SDE2E3FGHIRWXY/LB1 |
Departure
| Time | 2026-04-22 18:20 |
|---|---|
| Airport | Kotoka International Airport (DGAA) |
Arrival
| Time | 2026-04-22 19:35 |
|---|---|
| Airport | Malabo International Airport (FGSL) |
| Time | Latitude | Longitude | Altitude | Speed | Heading |
|---|---|---|---|---|---|
| 2026-04-22 18:07 | 5.59822 | -0.17345 | 211 ft | 0 kts | 292° |
| 2026-04-22 18:10 | 5.59821 | -0.17342 | 211 ft | 3 kts | 292° |
| 2026-04-22 18:10 | 5.59810 | -0.17318 | 215 ft | 4 kts | 296° |
| 2026-04-22 18:10 | 5.59798 | -0.17294 | 214 ft | 4 kts | 300° |
| 2026-04-22 18:10 | 5.59783 | -0.17271 | 216 ft | 4 kts | 309° |
| 2026-04-22 18:11 | 5.59764 | -0.17253 | 216 ft | 4 kts | 337° |
| 2026-04-22 18:11 | 5.59748 | -0.17250 | 210 ft | 1 kts | 22° |
| 2026-04-22 18:11 | 5.59745 | -0.17252 | 205 ft | 0 kts | 22° |
| 2026-04-22 18:14 | 5.59751 | -0.17249 | 210 ft | 6 kts | 22° |
| 2026-04-22 18:14 | 5.59819 | -0.17221 | 214 ft | 12 kts | 22° |
| 2026-04-22 18:14 | 5.59900 | -0.17187 | 210 ft | 15 kts | 22° |
| 2026-04-22 18:14 | 5.60014 | -0.17140 | 206 ft | 21 kts | 22° |
| 2026-04-22 18:15 | 5.60146 | -0.17085 | 211 ft | 21 kts | 22° |
| 2026-04-22 18:15 | 5.60282 | -0.17028 | 214 ft | 20 kts | 22° |
| 2026-04-22 18:15 | 5.60412 | -0.16976 | 215 ft | 20 kts | 21° |
| 2026-04-22 18:15 | 5.60537 | -0.16925 | 221 ft | 19 kts | 22° |
| 2026-04-22 18:16 | 5.60657 | -0.16875 | 220 ft | 18 kts | 22° |
| 2026-04-22 18:16 | 5.60774 | -0.16826 | 221 ft | 18 kts | 22° |
| 2026-04-22 18:16 | 5.60886 | -0.16779 | 222 ft | 17 kts | 22° |
| 2026-04-22 18:16 | 5.60996 | -0.16733 | 221 ft | 18 kts | 22° |
| 2026-04-22 18:17 | 5.61128 | -0.16679 | 220 ft | 23 kts | 22° |
| 2026-04-22 18:17 | 5.61285 | -0.16615 | 220 ft | 24 kts | 22° |
| 2026-04-22 18:17 | 5.61436 | -0.16553 | 217 ft | 23 kts | 22° |
| 2026-04-22 18:17 | 5.61525 | -0.16515 | 217 ft | 11 kts | 30° |
| 2026-04-22 18:18 | 5.61566 | -0.16455 | 214 ft | 8 kts | 76° |
| 2026-04-22 18:18 | 5.61561 | -0.16398 | 216 ft | 8 kts | 110° |
| 2026-04-22 18:18 | 5.61530 | -0.16353 | 216 ft | 8 kts | 130° |
| 2026-04-22 18:18 | 5.61491 | -0.16331 | 218 ft | 7 kts | 174° |
| 2026-04-22 18:19 | 5.61430 | -0.16348 | 220 ft | 25 kts | 200° |
| 2026-04-22 18:19 | 5.61033 | -0.16511 | 219 ft | 96 kts | 202° |
| 2026-04-22 18:19 | 5.60217 | -0.16842 | 216 ft | 155 kts | 198° |
| 2026-04-22 18:19 | 5.59149 | -0.17275 | 680 ft | 171 kts | 200° |
| 2026-04-22 18:20 | 5.58005 | -0.17724 | 1330 ft | 180 kts | 197° |
| 2026-04-22 18:20 | 5.56728 | -0.17713 | 1919 ft | 200 kts | 159° |
| 2026-04-22 18:20 | 5.55665 | -0.16692 | 2087 ft | 234 kts | 117° |
| 2026-04-22 18:20 | 5.55452 | -0.15002 | 2313 ft | 252 kts | 83° |
| 2026-04-22 18:21 | 5.55733 | -0.13347 | 2512 ft | 233 kts | 83° |
| 2026-04-22 18:21 | 5.55929 | -0.11761 | 2512 ft | 227 kts | 87° |
| 2026-04-22 18:21 | 5.56018 | -0.10135 | 2584 ft | 238 kts | 90° |
| 2026-04-22 18:21 | 5.55989 | -0.07734 | 3301 ft | 254 kts | 92° |
| 2026-04-22 18:22 | 5.55650 | -0.03629 | 4917 ft | 270 kts | 96° |
| 2026-04-22 18:22 | 5.54522 | 0.03811 | 8292 ft | 272 kts | 98° |
| 2026-04-22 18:22 | 5.53642 | 0.08513 | 10210 ft | 280 kts | 99° |
| 2026-04-22 18:22 | 5.53256 | 0.10509 | 10413 ft | 304 kts | 99° |
| 2026-04-22 18:23 | 5.52836 | 0.12662 | 10587 ft | 326 kts | 99° |
| 2026-04-22 18:23 | 5.51661 | 0.18638 | 11904 ft | 344 kts | 100° |
| 2026-04-22 18:23 | 5.49769 | 0.28237 | 14323 ft | 356 kts | 100° |
| 2026-04-22 18:24 | 5.45750 | 0.48630 | 18143 ft | 388 kts | 101° |
| 2026-04-22 18:24 | 5.43644 | 0.59304 | 19711 ft | 399 kts | 101° |
| 2026-04-22 18:24 | 5.39380 | 0.80890 | 22595 ft | 421 kts | 101° |
| 2026-04-22 18:25 | 5.37838 | 0.87747 | 23448 ft | 426 kts | 103° |
| 2026-04-22 18:25 | 5.34863 | 0.99428 | 24475 ft | 437 kts | 103° |
| 2026-04-22 18:25 | 5.31877 | 1.11370 | 25499 ft | 446 kts | 102° |
| 2026-04-22 18:26 | 5.25793 | 1.35966 | 27521 ft | 458 kts | 102° |
| 2026-04-22 18:26 | 5.22711 | 1.48382 | 28689 ft | 459 kts | 102° |
| 2026-04-22 18:26 | 5.20269 | 1.58223 | 29376 ft | 466 kts | 102° |
| 2026-04-22 18:26 | 5.19476 | 1.61374 | 29660 ft | 466 kts | 102° |
| 2026-04-22 18:27 | 5.18669 | 1.64525 | 29985 ft | 465 kts | 102° |
| 2026-04-22 18:27 | 5.17858 | 1.67664 | 30282 ft | 463 kts | 102° |
| 2026-04-22 18:27 | 5.17052 | 1.70786 | 30594 ft | 462 kts | 102° |
| 2026-04-22 18:27 | 5.16246 | 1.73908 | 30834 ft | 462 kts | 102° |
| 2026-04-22 18:28 | 5.14648 | 1.80123 | 30834 ft | 462 kts | 102° |
| 2026-04-22 18:28 | 5.13050 | 1.86342 | 30843 ft | 459 kts | 102° |
| 2026-04-22 18:29 | 5.11458 | 1.92541 | 30844 ft | 458 kts | 102° |
| 2026-04-22 18:29 | 5.09866 | 1.98734 | 30848 ft | 458 kts | 102° |
| 2026-04-22 18:30 | 5.07478 | 2.08022 | 30848 ft | 459 kts | 102° |
| 2026-04-22 18:31 | 5.05881 | 2.14230 | 30847 ft | 459 kts | 102° |
| 2026-04-22 18:31 | 5.04282 | 2.20443 | 30843 ft | 460 kts | 102° |
| 2026-04-22 18:32 | 5.02683 | 2.26664 | 30847 ft | 461 kts | 102° |
| 2026-04-22 18:32 | 5.01096 | 2.32848 | 30842 ft | 461 kts | 102° |
| 2026-04-22 18:33 | 4.99496 | 2.39079 | 30844 ft | 461 kts | 102° |
| 2026-04-22 18:33 | 4.97893 | 2.45318 | 30844 ft | 462 kts | 102° |
| 2026-04-22 18:34 | 4.96290 | 2.51554 | 30846 ft | 462 kts | 102° |
| 2026-04-22 18:34 | 4.94685 | 2.57794 | 30846 ft | 462 kts | 102° |
| 2026-04-22 18:35 | 4.93080 | 2.64032 | 30848 ft | 461 kts | 102° |
| 2026-04-22 18:35 | 4.91479 | 2.70257 | 30843 ft | 461 kts | 102° |
| 2026-04-22 18:36 | 4.89877 | 2.76480 | 30848 ft | 461 kts | 102° |
| 2026-04-22 18:36 | 4.88281 | 2.82675 | 30844 ft | 461 kts | 102° |
| 2026-04-22 18:37 | 4.86675 | 2.88907 | 30846 ft | 461 kts | 102° |
| 2026-04-22 18:37 | 4.85339 | 2.94088 | 30847 ft | 461 kts | 102° |
| 2026-04-22 18:38 | 4.83466 | 3.01357 | 30852 ft | 461 kts | 102° |
| 2026-04-22 18:38 | 4.81860 | 3.07587 | 30843 ft | 461 kts | 102° |
| 2026-04-22 18:39 | 4.79448 | 3.16940 | 30849 ft | 463 kts | 102° |
| 2026-04-22 18:39 | 4.77834 | 3.23192 | 30848 ft | 463 kts | 102° |
| 2026-04-22 18:40 | 4.76228 | 3.29411 | 30844 ft | 464 kts | 102° |
| 2026-04-22 18:40 | 4.74609 | 3.35679 | 30850 ft | 464 kts | 102° |
| 2026-04-22 18:41 | 4.72988 | 3.41953 | 30846 ft | 465 kts | 102° |
| 2026-04-22 18:41 | 4.71366 | 3.48227 | 30847 ft | 465 kts | 102° |
| 2026-04-22 18:42 | 4.69743 | 3.54505 | 30851 ft | 465 kts | 102° |
| 2026-04-22 18:42 | 4.68118 | 3.60785 | 30850 ft | 464 kts | 102° |
| 2026-04-22 18:43 | 4.66505 | 3.67017 | 30850 ft | 464 kts | 102° |
| 2026-04-22 18:43 | 4.64884 | 3.73279 | 30848 ft | 464 kts | 102° |
| 2026-04-22 18:44 | 4.63263 | 3.79538 | 30852 ft | 464 kts | 102° |
| 2026-04-22 18:44 | 4.61640 | 3.85804 | 30847 ft | 463 kts | 102° |
| 2026-04-22 18:45 | 4.60019 | 3.92057 | 30846 ft | 463 kts | 102° |
| 2026-04-22 18:45 | 4.58407 | 3.98274 | 30845 ft | 464 kts | 102° |
| 2026-04-22 18:46 | 4.56783 | 4.04534 | 30853 ft | 464 kts | 102° |
| 2026-04-22 18:46 | 4.55159 | 4.10796 | 30855 ft | 464 kts | 102° |
| 2026-04-22 18:47 | 4.53531 | 4.17068 | 30849 ft | 464 kts | 102° |
| 2026-04-22 18:47 | 4.51916 | 4.23286 | 30848 ft | 464 kts | 102° |
| 2026-04-22 18:48 | 4.50292 | 4.29540 | 30853 ft | 463 kts | 102° |
| 2026-04-22 18:48 | 4.48668 | 4.35789 | 30850 ft | 463 kts | 102° |
| 2026-04-22 18:49 | 4.47042 | 4.42045 | 30849 ft | 464 kts | 102° |
| 2026-04-22 18:49 | 4.45413 | 4.48310 | 30853 ft | 464 kts | 102° |
| 2026-04-22 18:50 | 4.43803 | 4.54562 | 30849 ft | 463 kts | 100° |
| 2026-04-22 18:50 | 4.43006 | 4.60931 | 30852 ft | 460 kts | 92° |
| 2026-04-22 18:51 | 4.42510 | 4.67318 | 30852 ft | 460 kts | 92° |
| 2026-04-22 18:51 | 4.41987 | 4.73711 | 30846 ft | 461 kts | 92° |
| 2026-04-22 18:52 | 4.41518 | 4.79039 | 30846 ft | 461 kts | 92° |
| 2026-04-22 18:52 | 4.40843 | 4.86479 | 30847 ft | 461 kts | 92° |
| 2026-04-22 18:53 | 4.40354 | 4.91842 | 30848 ft | 462 kts | 92° |
| 2026-04-22 18:53 | 4.39773 | 4.98219 | 30849 ft | 462 kts | 92° |
| 2026-04-22 18:54 | 4.39190 | 5.04630 | 30857 ft | 462 kts | 92° |
| 2026-04-22 18:54 | 4.38605 | 5.11053 | 30856 ft | 462 kts | 92° |
| 2026-04-22 18:55 | 4.38021 | 5.17467 | 30846 ft | 462 kts | 92° |
| 2026-04-22 18:55 | 4.37436 | 5.23879 | 30854 ft | 462 kts | 92° |
| 2026-04-22 18:56 | 4.36854 | 5.30258 | 30850 ft | 462 kts | 92° |
| 2026-04-22 18:56 | 4.36268 | 5.36671 | 30856 ft | 462 kts | 92° |
| 2026-04-22 18:57 | 4.35681 | 5.43083 | 30853 ft | 461 kts | 92° |
| 2026-04-22 18:57 | 4.35111 | 5.49305 | 30849 ft | 461 kts | 92° |
| 2026-04-22 18:58 | 4.34525 | 5.55703 | 30855 ft | 461 kts | 92° |
| 2026-04-22 18:58 | 4.33943 | 5.62054 | 30854 ft | 460 kts | 92° |
| 2026-04-22 18:59 | 4.33354 | 5.68442 | 30844 ft | 460 kts | 92° |
| 2026-04-22 18:59 | 4.32749 | 5.74827 | 30851 ft | 460 kts | 92° |
| 2026-04-22 19:00 | 4.32142 | 5.81202 | 30855 ft | 459 kts | 92° |
| 2026-04-22 19:00 | 4.31537 | 5.87578 | 30856 ft | 459 kts | 92° |
| 2026-04-22 19:01 | 4.30934 | 5.93948 | 30854 ft | 459 kts | 92° |
| 2026-04-22 19:01 | 4.30331 | 6.00305 | 30848 ft | 459 kts | 92° |
| 2026-04-22 19:02 | 4.29727 | 6.06663 | 30855 ft | 459 kts | 92° |
| 2026-04-22 19:02 | 4.29118 | 6.13002 | 30857 ft | 458 kts | 92° |
| 2026-04-22 19:03 | 4.28502 | 6.19393 | 30847 ft | 458 kts | 92° |
| 2026-04-22 19:03 | 4.27895 | 6.25702 | 30853 ft | 458 kts | 92° |
| 2026-04-22 19:04 | 4.27283 | 6.32057 | 30858 ft | 458 kts | 92° |
| 2026-04-22 19:04 | 4.26673 | 6.38394 | 30849 ft | 458 kts | 92° |
| 2026-04-22 19:05 | 4.26061 | 6.44740 | 30858 ft | 457 kts | 92° |
| 2026-04-22 19:05 | 4.25449 | 6.51111 | 30851 ft | 457 kts | 92° |
| 2026-04-22 19:06 | 4.24841 | 6.57456 | 30850 ft | 458 kts | 92° |
| 2026-04-22 19:07 | 4.23929 | 6.66952 | 30856 ft | 458 kts | 92° |
| 2026-04-22 19:07 | 4.23315 | 6.73311 | 30860 ft | 459 kts | 92° |
| 2026-04-22 19:08 | 4.22698 | 6.79673 | 30858 ft | 459 kts | 92° |
| 2026-04-22 19:08 | 4.22080 | 6.86033 | 30857 ft | 459 kts | 92° |
| 2026-04-22 19:09 | 4.21460 | 6.92416 | 30842 ft | 458 kts | 92° |
| 2026-04-22 19:09 | 4.21158 | 6.95514 | 30649 ft | 452 kts | 92° |
| 2026-04-22 19:09 | 4.20854 | 6.98626 | 30297 ft | 444 kts | 91° |
| 2026-04-22 19:09 | 4.20554 | 7.01698 | 29854 ft | 441 kts | 91° |
| 2026-04-22 19:10 | 4.20259 | 7.04727 | 29362 ft | 437 kts | 91° |
| 2026-04-22 19:10 | 4.19967 | 7.07741 | 28875 ft | 433 kts | 91° |
| 2026-04-22 19:10 | 4.19675 | 7.10744 | 28398 ft | 429 kts | 92° |
| 2026-04-22 19:10 | 4.19387 | 7.13711 | 27934 ft | 425 kts | 92° |
| 2026-04-22 19:11 | 4.19101 | 7.16649 | 27498 ft | 421 kts | 92° |
| 2026-04-22 19:11 | 4.18817 | 7.19562 | 27028 ft | 418 kts | 92° |
| 2026-04-22 19:11 | 4.18540 | 7.22411 | 26589 ft | 415 kts | 92° |
| 2026-04-22 19:11 | 4.18258 | 7.25305 | 26137 ft | 412 kts | 93° |
| 2026-04-22 19:12 | 4.17985 | 7.28112 | 25704 ft | 409 kts | 93° |
| 2026-04-22 19:12 | 4.17708 | 7.30949 | 25247 ft | 407 kts | 93° |
| 2026-04-22 19:12 | 4.17434 | 7.33766 | 24806 ft | 404 kts | 94° |
| 2026-04-22 19:12 | 4.17161 | 7.36567 | 24354 ft | 403 kts | 94° |
| 2026-04-22 19:13 | 4.16890 | 7.39344 | 23915 ft | 401 kts | 94° |
| 2026-04-22 19:13 | 4.16617 | 7.42133 | 23475 ft | 399 kts | 94° |
| 2026-04-22 19:13 | 4.16348 | 7.44882 | 22968 ft | 397 kts | 94° |
| 2026-04-22 19:13 | 4.16080 | 7.47628 | 22502 ft | 393 kts | 94° |
| 2026-04-22 19:14 | 4.15815 | 7.50335 | 22059 ft | 389 kts | 94° |
| 2026-04-22 19:14 | 4.15551 | 7.53029 | 21628 ft | 386 kts | 94° |
| 2026-04-22 19:14 | 4.15291 | 7.55690 | 21203 ft | 383 kts | 94° |
| 2026-04-22 19:14 | 4.15032 | 7.58334 | 20784 ft | 379 kts | 95° |
| 2026-04-22 19:15 | 4.14862 | 7.60070 | 20506 ft | 377 kts | 95° |
| 2026-04-22 19:15 | 4.14523 | 7.63526 | 19959 ft | 374 kts | 95° |
| 2026-04-22 19:15 | 4.14271 | 7.66104 | 19550 ft | 371 kts | 95° |
| 2026-04-22 19:15 | 4.14020 | 7.68663 | 19142 ft | 368 kts | 95° |
| 2026-04-22 19:16 | 4.13771 | 7.71204 | 18725 ft | 367 kts | 95° |
| 2026-04-22 19:16 | 4.13523 | 7.73736 | 18326 ft | 364 kts | 95° |
| 2026-04-22 19:16 | 4.13275 | 7.76260 | 17870 ft | 363 kts | 95° |
| 2026-04-22 19:16 | 4.13028 | 7.78772 | 17434 ft | 360 kts | 95° |
| 2026-04-22 19:17 | 4.12784 | 7.81259 | 17019 ft | 357 kts | 95° |
| 2026-04-22 19:17 | 4.12542 | 7.83722 | 16616 ft | 353 kts | 95° |
| 2026-04-22 19:17 | 4.12302 | 7.86159 | 16223 ft | 350 kts | 95° |
| 2026-04-22 19:17 | 4.11982 | 7.88551 | 15900 ft | 345 kts | 100° |
| 2026-04-22 19:18 | 4.11512 | 7.90885 | 15655 ft | 338 kts | 102° |
| 2026-04-22 19:18 | 4.11003 | 7.93169 | 15329 ft | 334 kts | 102° |
| 2026-04-22 19:18 | 4.10496 | 7.95406 | 14964 ft | 332 kts | 102° |
| 2026-04-22 19:18 | 4.09991 | 7.97659 | 14596 ft | 331 kts | 102° |
| 2026-04-22 19:19 | 4.09493 | 7.99914 | 14217 ft | 329 kts | 102° |
| 2026-04-22 19:19 | 4.09009 | 8.02130 | 13853 ft | 328 kts | 102° |
| 2026-04-22 19:19 | 4.08524 | 8.04367 | 13440 ft | 327 kts | 102° |
| 2026-04-22 19:19 | 4.08045 | 8.06587 | 13033 ft | 325 kts | 101° |
| 2026-04-22 19:20 | 4.07568 | 8.08805 | 12656 ft | 323 kts | 101° |
| 2026-04-22 19:20 | 4.07097 | 8.10996 | 12262 ft | 321 kts | 101° |
| 2026-04-22 19:20 | 4.06629 | 8.13175 | 11894 ft | 319 kts | 101° |
| 2026-04-22 19:20 | 4.06161 | 8.15355 | 11520 ft | 317 kts | 101° |
| 2026-04-22 19:21 | 4.05704 | 8.17484 | 11154 ft | 315 kts | 101° |
| 2026-04-22 19:21 | 4.05244 | 8.19628 | 10791 ft | 314 kts | 101° |
| 2026-04-22 19:21 | 4.04785 | 8.21764 | 10442 ft | 312 kts | 101° |
| 2026-04-22 19:21 | 4.04337 | 8.23853 | 10316 ft | 302 kts | 101° |
| 2026-04-22 19:22 | 4.03900 | 8.25884 | 10174 ft | 293 kts | 101° |
| 2026-04-22 19:22 | 4.03477 | 8.27856 | 10046 ft | 285 kts | 101° |
| 2026-04-22 19:22 | 4.03071 | 8.29746 | 9925 ft | 277 kts | 101° |
| 2026-04-22 19:22 | 4.02672 | 8.31604 | 9763 ft | 270 kts | 101° |
| 2026-04-22 19:23 | 4.02273 | 8.33462 | 9426 ft | 271 kts | 101° |
| 2026-04-22 19:23 | 4.01879 | 8.35302 | 8951 ft | 276 kts | 101° |
| 2026-04-22 19:23 | 4.01471 | 8.37200 | 8536 ft | 279 kts | 101° |
| 2026-04-22 19:23 | 4.01128 | 8.39096 | 8271 ft | 276 kts | 96° |
| 2026-04-22 19:24 | 4.00932 | 8.41002 | 8049 ft | 272 kts | 94° |
| 2026-04-22 19:24 | 4.00772 | 8.42883 | 7792 ft | 270 kts | 94° |
| 2026-04-22 19:24 | 4.00614 | 8.44766 | 7470 ft | 271 kts | 94° |
| 2026-04-22 19:24 | 4.00452 | 8.46646 | 7121 ft | 273 kts | 94° |
| 2026-04-22 19:25 | 4.00286 | 8.48524 | 6815 ft | 273 kts | 94° |
| 2026-04-22 19:25 | 4.00114 | 8.50410 | 6576 ft | 271 kts | 94° |
| 2026-04-22 19:25 | 3.99943 | 8.52277 | 6345 ft | 268 kts | 94° |
| 2026-04-22 19:25 | 3.99769 | 8.54144 | 6012 ft | 270 kts | 94° |
| 2026-04-22 19:26 | 3.99594 | 8.56023 | 5605 ft | 274 kts | 95° |
| 2026-04-22 19:26 | 3.99414 | 8.57938 | 5258 ft | 276 kts | 95° |
| 2026-04-22 19:26 | 3.99234 | 8.59840 | 5004 ft | 274 kts | 95° |
| 2026-04-22 19:26 | 3.99055 | 8.61735 | 4773 ft | 271 kts | 95° |
| 2026-04-22 19:27 | 3.98878 | 8.63608 | 4487 ft | 271 kts | 95° |
| 2026-04-22 19:27 | 3.98701 | 8.65482 | 4092 ft | 269 kts | 96° |
| 2026-04-22 19:27 | 3.98526 | 8.67330 | 3625 ft | 271 kts | 96° |
| 2026-04-22 19:27 | 3.98347 | 8.69217 | 3128 ft | 272 kts | 96° |
| 2026-04-22 19:28 | 3.98170 | 8.71088 | 2669 ft | 271 kts | 96° |
| 2026-04-22 19:28 | 3.97990 | 8.72975 | 2320 ft | 269 kts | 96° |
| 2026-04-22 19:28 | 3.97818 | 8.74792 | 2176 ft | 252 kts | 96° |
| 2026-04-22 19:28 | 3.97658 | 8.76477 | 2123 ft | 232 kts | 96° |
| 2026-04-22 19:29 | 3.97506 | 8.78078 | 2116 ft | 228 kts | 96° |
| 2026-04-22 19:29 | 3.97060 | 8.79566 | 2104 ft | 225 kts | 127° |
| 2026-04-22 19:29 | 3.96015 | 8.80751 | 2122 ft | 229 kts | 134° |
| 2026-04-22 19:29 | 3.94958 | 8.81904 | 2113 ft | 226 kts | 134° |
| 2026-04-22 19:30 | 3.94240 | 8.82691 | 2105 ft | 225 kts | 134° |
| 2026-04-22 19:30 | 3.92798 | 8.84176 | 2103 ft | 220 kts | 147° |
| 2026-04-22 19:30 | 3.91393 | 8.84558 | 2116 ft | 216 kts | 189° |
| 2026-04-22 19:30 | 3.90051 | 8.83914 | 2133 ft | 220 kts | 222° |
| 2026-04-22 19:31 | 3.88912 | 8.82888 | 2123 ft | 219 kts | 222° |
| 2026-04-22 19:31 | 3.87781 | 8.81889 | 2107 ft | 215 kts | 223° |
| 2026-04-22 19:31 | 3.86671 | 8.80895 | 2104 ft | 211 kts | 224° |
| 2026-04-22 19:31 | 3.85589 | 8.79921 | 2081 ft | 201 kts | 224° |
| 2026-04-22 19:32 | 3.84602 | 8.79033 | 2054 ft | 188 kts | 224° |
| 2026-04-22 19:32 | 3.83642 | 8.78168 | 1850 ft | 184 kts | 224° |
| 2026-04-22 19:32 | 3.82683 | 8.77304 | 1602 ft | 183 kts | 224° |
| 2026-04-22 19:32 | 3.81772 | 8.76484 | 1379 ft | 172 kts | 224° |
| 2026-04-22 19:33 | 3.80914 | 8.75712 | 1197 ft | 158 kts | 224° |
| 2026-04-22 19:33 | 3.80135 | 8.75011 | 1005 ft | 145 kts | 223° |
| 2026-04-22 19:33 | 3.79386 | 8.74317 | 834 ft | 145 kts | 225° |
| 2026-04-22 19:33 | 3.78655 | 8.73629 | 638 ft | 142 kts | 223° |
| 2026-04-22 19:34 | 3.77925 | 8.72986 | 460 ft | 142 kts | 221° |
| 2026-04-22 19:34 | 3.77171 | 8.72325 | 271 ft | 141 kts | 222° |
| 2026-04-22 19:34 | 3.76449 | 8.71684 | 125 ft | 137 kts | 220° |
| 2026-04-22 19:34 | 3.75779 | 8.71100 | 93 ft | 113 kts | 224° |
| 2026-04-22 19:35 | 3.75266 | 8.70635 | 64 ft | 82 kts | 222° |
| 2026-04-22 19:35 | 3.74949 | 8.70351 | 74 ft | 39 kts | 221° |
| 2026-04-22 19:35 | 3.74839 | 8.70253 | 75 ft | 31 kts | 221° |
| 2026-04-22 19:35 | 3.74639 | 8.70076 | 82 ft | 18 kts | 221° |
| 2026-04-22 19:36 | 3.74598 | 8.70040 | 80 ft | 7 kts | 221° |
| 2026-04-22 19:36 | 3.74557 | 8.70015 | 81 ft | 7 kts | 189° |
| 2026-04-22 19:36 | 3.74511 | 8.70037 | 68 ft | 9 kts | 135° |
| 2026-04-22 19:36 | 3.74474 | 8.70102 | 69 ft | 12 kts | 101° |
| 2026-04-22 19:37 | 3.74499 | 8.70184 | 68 ft | 13 kts | 49° |
| 2026-04-22 19:37 | 3.74561 | 8.70243 | 64 ft | 12 kts | 42° |
| 2026-04-22 19:37 | 3.74624 | 8.70299 | 65 ft | 12 kts | 41° |
| 2026-04-22 19:37 | 3.74685 | 8.70354 | 70 ft | 12 kts | 42° |
| 2026-04-22 19:38 | 3.74744 | 8.70407 | 65 ft | 11 kts | 42° |
| 2026-04-22 19:38 | 3.74802 | 8.70459 | 69 ft | 11 kts | 42° |
| 2026-04-22 19:38 | 3.74858 | 8.70509 | 65 ft | 11 kts | 42° |
| 2026-04-22 19:38 | 3.74912 | 8.70558 | 67 ft | 10 kts | 41° |
| 2026-04-22 19:39 | 3.74965 | 8.70605 | 65 ft | 10 kts | 41° |
| 2026-04-22 19:39 | 3.75016 | 8.70650 | 69 ft | 10 kts | 41° |
| 2026-04-22 19:39 | 3.75067 | 8.70695 | 66 ft | 10 kts | 41° |
| 2026-04-22 19:39 | 3.75116 | 8.70739 | 65 ft | 9 kts | 41° |
| 2026-04-22 19:40 | 3.75148 | 8.70767 | 69 ft | 9 kts | 41° |
| 2026-04-22 19:40 | 3.75195 | 8.70809 | 63 ft | 9 kts | 41° |
| 2026-04-22 19:40 | 3.75223 | 8.70833 | 66 ft | 0 kts | 41° |